ΕΜΥ, Εθνική Μετεωρολογική Υπηρεσία - Δελτία Καιρού, Προγνώσεις

ΑΕΡΟΝΑΥΤΙΛΙΑ

GREEK AIRPORTS CODES

TAF LGMG 190400Z 1906/1915 VRB03KT 9000 FEW012 SCT018=

EUROPEAN AIRPORTS CODES

LFPO 190500Z 21008KT 180V240 9999 SCT012 BKN100 12/11 Q1005NOSIG=